Uppsala, Sverige

09:03 PM CET on December 21, 2014 (GMT +0100)
Graneberg | Change Station
CLOSE
Current Station
Personal Weather Stations
Location: Uppsala, Uppsala
Elevation: 148 ft
Nearby Weather Stations

Elev 148 ft 59.79 °N, 17.63 °E | Updated 3 minutes ago

Clear
Klart
26.8 °F
Feels Like 27 °F
N
0.0
Vind Växlande Vind from Nordlig
Gusts 0.0 miles/tim

Idag
High -- | Low -- °F
--% Chance of Precip.
Yesterday
High -- | Low -- °F
Precip. -- tum
8:50 AM 2:44 PM
Fjärde kvarteret, 0% visible
Lufttryck 29.53 tum
Sikt -9999.0 miles
Molnigt
Vindavkylning 27 °F
Daggpunkt 20 °F
Luftfuktighet 74%
Rainfall 0.00 tum
Snow Depth Not available.
UV Not available.
Pollen Not available.
Air Quality Not available.
Flu Activity Not available.
METAR ESSA 211950Z 22006KT CAVOK M04/M05 Q1000 R01L/19//61 R08/19//61 R01R/19//56 NOSIG

More Conditions Fewer Conditions

Lufttryck 29.53 tum
Sikt -9999.0 miles
Molnigt
Vindavkylning 27 °F
Daggpunkt 20 °F
Luftfuktighet 74%
Rainfall 0.00 tum
Snow Depth Not available.
UV Not available.
Pollen Not available.
Air Quality Not available.
Flu Activity Not available.
METAR ESSA 211950Z 22006KT CAVOK M04/M05 Q1000 R01L/19//61 R08/19//61 R01R/19//56 NOSIG

More Conditions Fewer Conditions

10-Day Weather Forecast

Almanac

Astronomi

Dec. 21, 2014 Rise Set
Actual Time
Civil Twilight
Nautical Twilight
Astronomical Twilight
Månen
Length Of Visible Light
Dagens längd
Tomorrow will be .
, % of the Moon is Illuminated

Today's Extremes

Country Highs Country Lows

Community

WunderPhotos

Upload Photos

1,779,471 photos uploaded!

WunderBlogs® & News

Nearby

Air Quality

  Air Quality AQ Index Pollutant
Not available.

Snödjup

Station Depth Elevation

Earthquake Activity

Stad Distance Mag. Time & Date
Minimum magnitude displayed is 2.5.

Coastal Water Temperatures

Plats Temperatur

Nearby Weather Stations